CheckWX is a tool to help pilots better visualize weather data.  It is not intended as a substitute for an official pre-flight weather briefing.

05:12:59 UTC

VDSR TAF
Siem Reap International Airport
Siem Reap, Cambodia
TAF VDSR 232300Z 2400/2418 11007KT 9999 SCT017 TEMPO 2406/2411 SCT015 FEW017CB

Feb-24@
00:00 UTC

Feb-24 @ 00:00 UTC

Feb-24@
18:00 UTC

Feb-24 @ 18:00 UTC

TAF VDSR 232300Z 2400/2418 11007KT 9999 SCT017
Wind
  • 110° at 7 KTS
Cloud Levels
  • Scattered at 1,700' AGL

Feb-24@
06:00 UTC

Feb-24 @ 06:00 UTC

Feb-24@
11:00 UTC

Feb-24 @ 11:00 UTC

TEMPO 2406/2411 SCT015 FEW017CB

Temporary

Temporary Changes expected for less than half the time period

Cloud Levels
  • Scattered at 1,500' AGL
  • Few at 1,700' AGL